Time;durP1;ratioP1;P1;durP2;ratioP2;P2;SDS_P1;SDS_P2;PMS_P1;PMS_P2;Temp;Humidity;BMP_temperature;BMP_pressure;BME280_temperature;BME280_humidity;BME280_pressure;Samples;Min_cycle;Max_cycle;Signal;HPM_P1;HPM_P2
2022/06/16 00:02:14;;;;;;;7.72;6.28;;;13.10;99.90;;;;;;4990699;28;20042;-71
2022/06/16 00:04:46;;;;;;;8.10;6.22;;;13.10;99.90;;;;;;4984796;28;20036;-71
2022/06/16 00:07:15;;;;;;;8.35;5.95;;;13.00;99.90;;;;;;5000683;28;20416;-71
2022/06/16 00:09:41;;;;;;;6.85;5.97;;;13.00;99.90;;;;;;4974640;28;20409;-71
2022/06/16 00:12:07;;;;;;;8.65;6.00;;;13.00;99.90;;;;;;5007766;28;20034;-71
2022/06/16 00:14:33;;;;;;;10.43;6.00;;;13.00;99.90;;;;;;5027084;28;20397;-71
2022/06/16 00:16:59;;;;;;;9.30;7.50;;;13.00;99.90;;;;;;5004098;28;20038;-71
2022/06/16 00:19:24;;;;;;;11.02;7.22;;;13.00;99.90;;;;;;5003259;28;20038;-71
2022/06/16 00:21:50;;;;;;;6.93;6.03;;;13.00;99.90;;;;;;5040009;28;20065;-71
2022/06/16 00:24:16;;;;;;;7.53;5.93;;;13.00;99.90;;;;;;5038114;28;20095;-70
2022/06/16 00:26:42;;;;;;;9.38;7.15;;;13.00;99.90;;;;;;4986449;28;20053;-71
2022/06/16 00:29:08;;;;;;;8.30;6.60;;;13.00;99.90;;;;;;4987635;28;20068;-71
2022/06/16 00:31:35;;;;;;;10.13;6.95;;;13.00;99.90;;;;;;4963569;28;20046;-71
2022/06/16 00:34:01;;;;;;;9.35;6.63;;;13.00;99.90;;;;;;5034182;28;20034;-71
2022/06/16 00:36:26;;;;;;;8.68;6.10;;;12.90;99.90;;;;;;5016056;28;20049;-71
2022/06/16 00:38:52;;;;;;;8.98;6.05;;;12.90;99.90;;;;;;4991070;28;20568;-71
2022/06/16 00:41:18;;;;;;;8.45;6.00;;;12.90;99.90;;;;;;5001886;28;20714;-70
2022/06/16 00:43:44;;;;;;;10.73;6.50;;;12.90;99.90;;;;;;4991810;28;20421;-70
2022/06/16 00:46:14;;;;;;;10.98;6.30;;;12.80;99.90;;;;;;5033095;28;20543;-70
2022/06/16 00:48:49;;;;;;;10.95;7.43;;;12.90;99.90;;;;;;5001321;28;20048;-71
2022/06/16 00:51:31;;;;;;;13.18;7.90;;;12.90;99.90;;;;;;5003875;28;20141;-71
2022/06/16 00:54:02;;;;;;;9.75;7.43;;;12.80;99.90;;;;;;5003170;28;20126;-71
2022/06/16 00:56:29;;;;;;;8.48;6.22;;;12.70;99.90;;;;;;4998655;28;20133;-70
2022/06/16 00:59:00;;;;;;;9.85;6.65;;;12.60;99.90;;;;;;5002667;28;20042;-70
2022/06/16 01:01:26;;;;;;;7.75;6.38;;;12.60;99.90;;;;;;5014741;28;20092;-70
2022/06/16 01:06:37;;;;;;;9.30;6.88;;;12.60;99.90;;;;;;4989240;28;20081;-70
2022/06/16 01:09:15;;;;;;;9.95;6.28;;;12.50;99.90;;;;;;4995030;28;20034;-70
2022/06/16 01:14:53;;;;;;;8.43;5.80;;;12.40;99.90;;;;;;5002650;28;20089;-70
2022/06/16 01:17:43;;;;;;;7.95;5.97;;;12.30;99.90;;;;;;5005618;28;20046;-70
2022/06/16 01:20:31;;;;;;;7.22;5.63;;;12.30;99.90;;;;;;5019572;28;20121;-70
2022/06/16 01:23:09;;;;;;;6.80;5.85;;;12.30;99.90;;;;;;5004061;28;20556;-70
2022/06/16 01:25:44;;;;;;;8.00;6.50;;;12.30;99.90;;;;;;5007849;28;20213;-70
2022/06/16 01:28:45;;;;;;;8.32;6.00;;;12.30;99.90;;;;;;5012050;28;20108;-71
2022/06/16 01:31:26;;;;;;;8.15;6.15;;;12.20;99.90;;;;;;4987425;28;20080;-71
2022/06/16 01:34:07;;;;;;;10.35;6.20;;;12.20;99.90;;;;;;5004691;28;20520;-71
2022/06/16 01:36:41;;;;;;;7.93;7.00;;;12.10;99.90;;;;;;4996407;28;20058;-70
2022/06/16 01:39:16;;;;;;;10.65;6.53;;;12.20;99.90;;;;;;5004451;28;20125;-71
2022/06/16 01:41:48;;;;;;;9.40;6.88;;;12.20;99.90;;;;;;5004481;28;20755;-71
2022/06/16 01:44:42;;;;;;;9.60;7.25;;;12.20;99.90;;;;;;5002259;28;20042;-70
2022/06/16 01:47:18;;;;;;;9.40;7.10;;;12.30;99.90;;;;;;5002516;28;20509;-70
2022/06/16 01:49:50;;;;;;;11.95;7.35;;;12.30;99.90;;;;;;5036333;28;20212;-71
2022/06/16 01:52:32;;;;;;;7.63;5.90;;;12.30;99.90;;;;;;5005164;28;20057;-71
2022/06/16 01:55:26;;;;;;;10.32;7.60;;;12.30;99.90;;;;;;5021441;28;20045;-71
2022/06/16 01:58:14;;;;;;;9.55;7.55;;;12.30;99.90;;;;;;4990503;28;20450;-70
2022/06/16 02:00:43;;;;;;;7.82;6.30;;;12.10;99.90;;;;;;5000101;28;20054;-70
2022/06/16 02:03:20;;;;;;;8.82;7.10;;;12.00;99.90;;;;;;4996497;28;20448;-70
2022/06/16 02:05:53;;;;;;;10.25;7.57;;;12.00;99.90;;;;;;4990432;28;20138;-70
2022/06/16 02:08:25;;;;;;;9.93;8.07;;;12.00;99.90;;;;;;4987194;28;20056;-70
2022/06/16 02:11:05;;;;;;;11.05;7.93;;;12.00;99.90;;;;;;4989079;28;20073;-70
2022/06/16 02:13:36;;;;;;;10.63;8.10;;;12.00;99.90;;;;;;5002236;28;20125;-72
2022/06/16 02:16:30;;;;;;;12.05;8.73;;;12.10;99.90;;;;;;5007381;28;20050;-72
2022/06/16 02:18:58;;;;;;;11.65;7.60;;;12.10;99.90;;;;;;4989636;28;20064;-72
2022/06/16 02:21:35;;;;;;;9.27;8.30;;;12.10;99.90;;;;;;4992093;28;20045;-70
2022/06/16 02:24:07;;;;;;;10.77;7.90;;;12.10;99.90;;;;;;5006828;28;20456;-70
2022/06/16 02:26:34;;;;;;;10.80;8.30;;;12.20;99.90;;;;;;5000099;28;20527;-70
2022/06/16 02:29:19;;;;;;;11.45;7.90;;;12.20;99.90;;;;;;4989448;28;20169;-70
2022/06/16 02:32:15;;;;;;;10.48;8.55;;;12.20;99.90;;;;;;5003759;28;20408;-70
2022/06/16 02:34:54;;;;;;;10.10;7.53;;;12.20;99.90;;;;;;4977593;28;20137;-70
2022/06/16 02:37:45;;;;;;;11.43;8.77;;;12.20;99.90;;;;;;4987924;28;20041;-70
2022/06/16 02:40:54;;;;;;;11.88;8.57;;;12.30;99.90;;;;;;5038465;28;20038;-70
2022/06/16 02:43:39;;;;;;;11.00;7.97;;;12.30;99.90;;;;;;4984685;28;20194;-70
2022/06/16 02:46:09;;;;;;;11.35;8.25;;;12.30;99.90;;;;;;5002956;28;20042;-70
2022/06/16 02:49:07;;;;;;;8.10;7.32;;;12.30;99.90;;;;;;5001178;28;20411;-70
2022/06/16 02:51:39;;;;;;;9.45;8.05;;;12.30;99.90;;;;;;4984414;28;20718;-70
2022/06/16 02:54:20;;;;;;;13.50;10.18;;;12.30;99.90;;;;;;5005660;28;20049;-71
2022/06/16 02:57:05;;;;;;;12.30;10.35;;;12.30;99.90;;;;;;5000748;28;20058;-70
2022/06/16 02:59:40;;;;;;;11.80;10.07;;;12.30;99.90;;;;;;5017568;28;20057;-70
2022/06/16 03:02:23;;;;;;;12.52;8.93;;;12.20;99.90;;;;;;5008457;28;20065;-70
2022/06/16 03:04:57;;;;;;;12.40;9.32;;;12.20;99.90;;;;;;5004646;28;20405;-70
2022/06/16 03:07:24;;;;;;;11.65;8.70;;;12.10;99.90;;;;;;4995073;28;20058;-70
2022/06/16 03:09:50;;;;;;;12.13;9.00;;;12.10;99.90;;;;;;5004180;28;20050;-70
2022/06/16 03:12:16;;;;;;;9.32;8.23;;;12.20;99.90;;;;;;4986851;28;20136;-70
2022/06/16 03:14:43;;;;;;;12.13;8.98;;;12.20;99.90;;;;;;5005936;28;20050;-70
2022/06/16 03:17:11;;;;;;;9.60;7.63;;;12.20;99.90;;;;;;5036830;28;20073;-71
2022/06/16 03:19:37;;;;;;;10.30;8.23;;;12.20;99.90;;;;;;4999758;28;20135;-71
2022/06/16 03:22:04;;;;;;;9.55;8.23;;;12.20;99.90;;;;;;4987461;28;20084;-71
2022/06/16 03:24:30;;;;;;;10.10;8.45;;;12.20;99.90;;;;;;5005347;28;20523;-71
2022/06/16 03:26:56;;;;;;;11.15;9.00;;;12.20;99.90;;;;;;5020306;28;20081;-70
2022/06/16 03:29:22;;;;;;;9.55;8.55;;;12.20;99.90;;;;;;5007980;28;20073;-71
2022/06/16 03:31:48;;;;;;;10.63;8.80;;;12.20;99.90;;;;;;4997852;28;20037;-71
2022/06/16 03:34:14;;;;;;;14.00;11.30;;;12.20;99.90;;;;;;5001497;28;20056;-71
2022/06/16 03:36:40;;;;;;;11.38;10.18;;;12.20;99.90;;;;;;4998739;28;20100;-71
2022/06/16 03:39:06;;;;;;;9.13;8.07;;;12.10;99.90;;;;;;5018946;28;20057;-71
2022/06/16 03:41:33;;;;;;;10.02;8.48;;;12.00;99.90;;;;;;5016822;28;20136;-71
2022/06/16 03:43:59;;;;;;;12.82;10.23;;;12.00;99.90;;;;;;4999863;28;20068;-71
2022/06/16 03:46:25;;;;;;;15.57;11.02;;;11.90;99.90;;;;;;5024876;28;20111;-70
2022/06/16 03:48:50;;;;;;;13.30;11.50;;;11.90;99.90;;;;;;5011844;28;20041;-71
2022/06/16 03:51:19;;;;;;;14.02;11.98;;;11.90;99.90;;;;;;4992540;28;20053;-71
2022/06/16 03:53:45;;;;;;;11.07;8.88;;;11.80;99.90;;;;;;5002783;28;20101;-70
2022/06/16 03:56:12;;;;;;;11.85;9.50;;;11.80;99.90;;;;;;5005542;28;20042;-70
2022/06/16 03:58:38;;;;;;;8.77;7.85;;;11.70;99.90;;;;;;5007970;28;20412;-71
2022/06/16 04:01:05;;;;;;;11.30;9.05;;;11.60;99.90;;;;;;4992011;28;20116;-71
2022/06/16 04:06:16;;;;;;;11.25;10.18;;;11.60;99.90;;;;;;5020118;28;20559;-71
2022/06/16 04:08:42;;;;;;;10.35;8.10;;;11.60;99.90;;;;;;4982949;28;20081;-71
2022/06/16 04:13:56;;;;;;;10.48;8.98;;;11.70;99.90;;;;;;5005184;28;20548;-71
2022/06/16 04:16:22;;;;;;;10.35;8.55;;;11.80;99.90;;;;;;5004917;28;20030;-71
2022/06/16 04:18:47;;;;;;;10.30;7.78;;;11.90;99.90;;;;;;4991334;28;20516;-71
2022/06/16 04:21:13;;;;;;;9.57;8.57;;;12.00;99.90;;;;;;5014124;28;20042;-70
2022/06/16 04:23:39;;;;;;;9.35;8.40;;;12.10;99.90;;;;;;5013566;28;20121;-70
2022/06/16 04:26:05;;;;;;;11.00;8.77;;;12.10;99.90;;;;;;5024699;28;20130;-71
2022/06/16 04:28:31;;;;;;;10.80;9.10;;;12.20;99.90;;;;;;4982637;28;20128;-71
2022/06/16 04:30:57;;;;;;;12.20;9.45;;;12.20;99.90;;;;;;5016518;28;20054;-71
2022/06/16 04:33:24;;;;;;;10.30;9.20;;;12.30;99.90;;;;;;4970945;28;20561;-71
2022/06/16 04:35:50;;;;;;;11.45;9.02;;;12.30;99.90;;;;;;4984986;28;20047;-71
2022/06/16 04:38:16;;;;;;;11.38;9.18;;;12.50;99.90;;;;;;4979602;28;20085;-71
2022/06/16 04:40:42;;;;;;;11.05;9.95;;;12.50;99.90;;;;;;5035780;28;21062;-70
2022/06/16 04:43:08;;;;;;;12.48;11.13;;;12.60;99.90;;;;;;4988336;28;20053;-71
2022/06/16 04:45:34;;;;;;;14.77;10.57;;;12.70;99.90;;;;;;5031729;28;20042;-71
2022/06/16 04:47:59;;;;;;;13.95;10.80;;;12.70;99.90;;;;;;5001363;28;20074;-71
2022/06/16 04:50:25;;;;;;;12.40;9.23;;;12.70;99.90;;;;;;5018220;28;20057;-70
2022/06/16 04:52:51;;;;;;;13.00;10.07;;;12.80;99.90;;;;;;5001931;28;20058;-70
2022/06/16 04:55:17;;;;;;;11.70;9.93;;;12.90;99.90;;;;;;5013128;28;20042;-71
2022/06/16 04:57:46;;;;;;;14.27;10.15;;;13.00;99.90;;;;;;4974398;28;20045;-71
2022/06/16 05:00:15;;;;;;;14.70;10.38;;;13.10;99.90;;;;;;5002762;28;20050;-71
2022/06/16 05:02:41;;;;;;;13.20;10.87;;;13.10;99.90;;;;;;4997169;28;20054;-71
2022/06/16 05:05:08;;;;;;;13.30;11.25;;;13.20;99.90;;;;;;4992469;28;20042;-71
2022/06/16 05:07:34;;;;;;;15.30;12.15;;;13.30;99.90;;;;;;4992063;28;20156;-71
2022/06/16 05:10:00;;;;;;;12.93;10.30;;;13.30;99.90;;;;;;4999630;28;20136;-71
2022/06/16 05:12:26;;;;;;;11.55;9.45;;;13.40;99.90;;;;;;4997495;28;20050;-71
2022/06/16 05:14:52;;;;;;;11.85;9.35;;;13.50;99.90;;;;;;5003053;28;20052;-71
2022/06/16 05:17:18;;;;;;;12.95;9.20;;;13.50;99.90;;;;;;5010919;28;20101;-71
2022/06/16 05:19:44;;;;;;;12.65;9.52;;;13.60;99.90;;;;;;4964872;28;20112;-71
2022/06/16 05:22:09;;;;;;;11.73;10.52;;;13.70;99.90;;;;;;4997859;28;20042;-71
2022/06/16 05:24:35;;;;;;;10.30;9.02;;;13.70;99.90;;;;;;5001341;28;20046;-70
2022/06/16 05:27:03;;;;;;;15.18;9.18;;;13.80;99.90;;;;;;5000462;28;20125;-71
2022/06/16 05:29:30;;;;;;;11.40;10.07;;;13.80;99.90;;;;;;5022738;28;20060;-72
2022/06/16 05:31:55;;;;;;;16.00;11.00;;;13.90;99.90;;;;;;4987324;28;20660;-70
2022/06/16 05:34:22;;;;;;;11.40;9.05;;;13.90;99.90;;;;;;5002953;28;20060;-71
2022/06/16 05:36:47;;;;;;;10.15;8.55;;;14.00;99.90;;;;;;5000179;28;20042;-72
2022/06/16 05:39:13;;;;;;;12.15;9.25;;;14.00;99.90;;;;;;5013128;28;21467;-70
2022/06/16 05:41:41;;;;;;;9.65;8.65;;;14.00;99.90;;;;;;4986473;28;20041;-70
2022/06/16 05:44:08;;;;;;;10.90;8.95;;;14.10;99.90;;;;;;5003929;28;20072;-70
2022/06/16 05:46:35;;;;;;;13.68;9.25;;;14.10;99.90;;;;;;5039206;28;20197;-70
2022/06/16 05:49:02;;;;;;;11.65;9.48;;;14.10;99.90;;;;;;5038416;28;20042;-71
2022/06/16 05:51:27;;;;;;;10.60;9.50;;;14.20;99.90;;;;;;5003198;28;20058;-71
2022/06/16 05:53:53;;;;;;;9.73;8.48;;;14.20;99.90;;;;;;4980968;28;20045;-71
2022/06/16 05:56:19;;;;;;;10.95;9.57;;;14.20;99.90;;;;;;4996797;28;20694;-71
2022/06/16 05:58:45;;;;;;;10.82;8.98;;;14.20;99.90;;;;;;4982640;28;20038;-71
2022/06/16 06:01:16;;;;;;;10.15;7.57;;;14.30;99.90;;;;;;5006991;28;20038;-71
2022/06/16 06:03:42;;;;;;;12.85;7.95;;;14.30;99.90;;;;;;5002409;28;20061;-72
2022/06/16 06:06:09;;;;;;;9.05;6.80;;;14.40;99.90;;;;;;5009958;28;20104;-71
2022/06/16 06:17:14;;;;;;;6.22;3.78;;;14.70;99.90;;;;;;5011470;28;20136;-71
2022/06/16 06:19:41;;;;;;;6.85;3.67;;;14.80;99.90;;;;;;5018949;28;20048;-72
2022/06/16 06:22:13;;;;;;;8.18;3.42;;;14.80;99.90;;;;;;4978880;28;20042;-71
2022/06/16 06:24:42;;;;;;;4.63;2.70;;;14.90;99.90;;;;;;4973342;28;20050;-71
2022/06/16 06:27:15;;;;;;;7.65;3.30;;;15.00;99.90;;;;;;4989099;28;20053;-71
2022/06/16 06:29:46;;;;;;;6.88;2.42;;;15.00;99.90;;;;;;5002134;28;20046;-72
2022/06/16 06:32:12;;;;;;;;;;;15.10;99.90;;;;;;4982872;28;20437;-71
2022/06/16 06:34:38;;;;;;;3.70;2.10;;;15.10;99.90;;;;;;5013058;28;19995;-71
2022/06/16 06:37:05;;;;;;;4.25;2.30;;;15.20;99.90;;;;;;5028435;28;20129;-71
2022/06/16 06:39:31;;;;;;;5.63;2.00;;;15.30;99.90;;;;;;5032984;28;20584;-71
2022/06/16 06:42:03;;;;;;;5.13;1.80;;;15.40;99.90;;;;;;4996304;28;20050;-71
2022/06/16 06:44:29;;;;;;;4.03;1.52;;;15.50;99.90;;;;;;5024270;28;20050;-72
2022/06/16 06:46:56;;;;;;;3.97;1.25;;;15.60;99.90;;;;;;4966909;28;20377;-71
2022/06/16 06:49:22;;;;;;;5.55;1.77;;;15.70;99.90;;;;;;5002940;28;20160;-71
2022/06/16 06:51:47;;;;;;;5.00;1.40;;;15.80;99.90;;;;;;4997794;28;20085;-71
2022/06/16 06:54:13;;;;;;;2.50;1.15;;;16.00;99.90;;;;;;4994487;28;20458;-71
2022/06/16 06:56:39;;;;;;;3.70;1.20;;;16.10;99.90;;;;;;4980401;28;20423;-71
2022/06/16 06:59:09;;;;;;;2.70;1.30;;;16.20;99.90;;;;;;4999294;28;20523;-72
2022/06/16 07:01:35;;;;;;;4.57;1.70;;;16.20;99.90;;;;;;4988616;28;20070;-72
2022/06/16 07:04:02;;;;;;;3.17;1.25;;;16.30;99.90;;;;;;5004859;28;20096;-71
2022/06/16 07:06:29;;;;;;;4.40;1.45;;;16.50;99.90;;;;;;5003840;28;20046;-72
2022/06/16 07:08:55;;;;;;;4.57;1.52;;;16.60;99.90;;;;;;4978489;28;20074;-71
2022/06/16 07:11:21;;;;;;;4.20;1.40;;;16.70;99.90;;;;;;4993284;28;20532;-71
2022/06/16 07:13:47;;;;;;;4.53;1.27;;;16.80;99.90;;;;;;4958909;28;20045;-71
2022/06/16 07:16:16;;;;;;;2.70;1.30;;;16.80;99.90;;;;;;4981649;28;20369;-72
2022/06/16 07:18:42;;;;;;;3.40;1.38;;;17.00;99.90;;;;;;4979034;28;20193;-71
2022/06/16 07:21:07;;;;;;;3.22;0.95;;;17.10;99.90;;;;;;4980204;28;20067;-71
2022/06/16 07:23:33;;;;;;;4.55;1.25;;;17.20;99.90;;;;;;5000992;28;20054;-71
2022/06/16 07:25:59;;;;;;;3.13;1.25;;;17.30;99.90;;;;;;4977117;28;20054;-71
2022/06/16 07:28:25;;;;;;;3.88;1.05;;;17.40;99.90;;;;;;4967977;28;20508;-71
2022/06/16 07:30:51;;;;;;;3.15;1.02;;;17.50;99.90;;;;;;4985199;28;20079;-71
2022/06/16 07:33:17;;;;;;;3.15;1.00;;;17.50;99.90;;;;;;4977492;28;20038;-71
2022/06/16 07:35:44;;;;;;;4.50;1.20;;;17.50;99.90;;;;;;4970984;28;20483;-72
2022/06/16 07:38:12;;;;;;;3.33;1.20;;;17.60;99.90;;;;;;5014812;28;20072;-71
2022/06/16 07:40:39;;;;;;;3.50;1.10;;;17.70;99.90;;;;;;4983615;28;20064;-72
2022/06/16 07:43:05;;;;;;;3.50;0.98;;;17.80;99.90;;;;;;4997075;28;20563;-72
2022/06/16 07:45:31;;;;;;;4.13;1.13;;;17.90;99.90;;;;;;5005557;28;20350;-71
2022/06/16 07:48:00;;;;;;;3.42;1.00;;;18.00;99.90;;;;;;4977729;28;20479;-71
2022/06/16 07:50:27;;;;;;;3.55;1.20;;;18.20;99.90;;;;;;4993129;28;20038;-71
2022/06/16 07:52:52;;;;;;;3.70;1.48;;;18.20;99.90;;;;;;5019775;28;20045;-71
2022/06/16 07:55:18;;;;;;;4.88;1.33;;;18.20;99.90;;;;;;5027802;28;20045;-71
2022/06/16 07:57:49;;;;;;;3.08;1.15;;;18.40;99.90;;;;;;5015313;28;20406;-71
2022/06/16 08:00:22;;;;;;;2.95;1.02;;;18.40;99.90;;;;;;5003181;28;20048;-71
2022/06/16 08:02:48;;;;;;;2.88;1.27;;;18.30;99.90;;;;;;5027825;28;20193;-71
2022/06/16 08:05:14;;;;;;;3.30;1.17;;;18.40;99.90;;;;;;5002466;28;20461;-71
2022/06/16 08:07:42;;;;;;;4.50;1.45;;;18.60;99.90;;;;;;4968534;28;20046;-71
2022/06/16 08:10:11;;;;;;;3.80;1.40;;;18.80;99.90;;;;;;5004396;28;20048;-71
2022/06/16 08:12:38;;;;;;;5.13;1.75;;;18.90;99.90;;;;;;4997822;28;20588;-73
2022/06/16 08:15:04;;;;;;;2.85;1.30;;;19.10;99.90;;;;;;5002735;28;20271;-73
2022/06/16 08:17:52;;;;;;;4.28;1.40;;;19.30;99.90;;;;;;4996449;28;20045;-75
2022/06/16 08:20:17;;;;;;;3.30;1.80;;;19.40;99.90;;;;;;5006820;28;20519;-75
2022/06/16 08:22:47;;;;;;;5.28;1.40;;;19.50;99.90;;;;;;5040943;28;20049;-75
2022/06/16 08:25:15;;;;;;;6.22;2.10;;;19.60;99.90;;;;;;5012789;28;20061;-74
2022/06/16 08:27:44;;;;;;;5.40;1.60;;;19.70;99.30;;;;;;4988797;28;20061;-74
2022/06/16 08:30:14;;;;;;;3.22;2.10;;;19.60;98.50;;;;;;5045394;28;20041;-73
2022/06/16 08:32:40;;;;;;;3.83;1.58;;;19.60;98.60;;;;;;4997392;28;20042;-73
2022/06/16 08:35:06;;;;;;;4.53;1.40;;;19.60;99.10;;;;;;5012136;28;20451;-73
2022/06/16 08:37:33;;;;;;;5.30;1.60;;;19.80;99.10;;;;;;5022286;28;20050;-72
2022/06/16 08:39:59;;;;;;;5.00;1.85;;;19.90;99.60;;;;;;4988638;28;20056;-74
2022/06/16 08:42:52;;;;;;;4.55;1.80;;;19.90;98.90;;;;;;5002003;28;20038;-74
2022/06/16 08:45:31;;;;;;;4.68;1.83;;;19.90;97.80;;;;;;5030315;28;20139;-73
2022/06/16 08:48:39;;;;;;;5.10;1.77;;;19.90;98.70;;;;;;4995019;28;20523;-74
2022/06/16 08:51:36;;;;;;;4.72;1.90;;;20.20;99.90;;;;;;4986415;28;20082;-74
2022/06/16 08:54:25;;;;;;;3.83;2.30;;;20.40;99.80;;;;;;4993715;28;20046;-74
2022/06/16 08:57:03;;;;;;;4.32;2.42;;;20.50;97.30;;;;;;5000354;28;20050;-74
2022/06/16 08:59:47;;;;;;;5.53;2.33;;;20.50;98.20;;;;;;5003817;28;20038;-75
2022/06/16 09:02:28;;;;;;;4.03;1.67;;;20.70;99.90;;;;;;5031735;28;20050;-75
2022/06/16 09:05:07;;;;;;;4.25;2.08;;;20.90;99.90;;;;;;5022077;28;20137;-74
2022/06/16 09:07:41;;;;;;;4.35;2.03;;;21.00;97.70;;;;;;5003727;28;20512;-74
2022/06/16 09:10:23;;;;;;;5.28;2.10;;;21.00;95.50;;;;;;4997367;28;20132;-74
2022/06/16 09:13:01;;;;;;;4.93;2.00;;;21.00;97.90;;;;;;5038934;28;20172;-73
2022/06/16 09:16:07;;;;;;;6.45;2.00;;;21.10;96.10;;;;;;4990357;28;20082;-73
2022/06/16 09:18:48;;;;;;;6.68;2.53;;;21.10;96.70;;;;;;4999414;28;20592;-74
2022/06/16 09:21:24;;;;;;;4.22;2.03;;;21.10;98.30;;;;;;5021890;28;20501;-73
2022/06/16 09:24:05;;;;;;;5.68;3.22;;;21.10;95.40;;;;;;5000905;28;20111;-73
2022/06/16 09:26:51;;;;;;;7.07;2.92;;;21.20;97.40;;;;;;4997085;28;20049;-74
2022/06/16 09:29:26;;;;;;;6.57;2.40;;;21.20;93.80;;;;;;5020717;28;20042;-73
2022/06/16 09:31:52;;;;;;;6.95;2.97;;;21.30;95.80;;;;;;5002193;28;20050;-73
2022/06/16 09:34:24;;;;;;;4.80;2.72;;;21.40;93.20;;;;;;5037943;28;20061;-74
2022/06/16 09:36:57;;;;;;;4.53;2.60;;;21.40;94.80;;;;;;5039389;28;20034;-74
2022/06/16 09:39:31;;;;;;;6.75;3.08;;;21.40;94.30;;;;;;5000655;28;20046;-73
2022/06/16 09:42:32;;;;;;;4.55;2.80;;;21.40;93.90;;;;;;5005840;28;20061;-74
2022/06/16 09:45:13;;;;;;;6.18;3.40;;;21.40;95.50;;;;;;4998439;28;20125;-74
2022/06/16 09:47:59;;;;;;;5.53;2.50;;;21.30;97.80;;;;;;5022877;28;20073;-74
2022/06/16 09:50:50;;;;;;;5.72;3.70;;;21.40;95.40;;;;;;5031859;28;20100;-73
2022/06/16 09:53:38;;;;;;;4.97;2.80;;;21.50;93.90;;;;;;5001334;28;20505;-74
2022/06/16 09:56:23;;;;;;;6.90;2.95;;;21.60;94.40;;;;;;5026475;28;20115;-73
2022/06/16 09:58:51;;;;;;;4.65;2.90;;;21.70;93.60;;;;;;5029528;28;20081;-75
2022/06/16 10:01:20;;;;;;;4.80;3.63;;;21.70;94.20;;;;;;4988107;28;20683;-74
2022/06/16 10:04:01;;;;;;;4.90;3.17;;;21.70;95.70;;;;;;5009582;28;20049;-75
2022/06/16 10:06:53;;;;;;;4.65;3.10;;;21.90;94.40;;;;;;5001932;28;20940;-75
2022/06/16 10:09:33;;;;;;;5.68;3.55;;;22.00;96.00;;;;;;5003164;28;20034;-75
2022/06/16 10:12:02;;;;;;;8.98;3.83;;;22.30;95.70;;;;;;5016669;28;20053;-74
2022/06/16 10:14:40;;;;;;;4.72;3.20;;;22.40;96.30;;;;;;5019671;28;20048;-75
2022/06/16 10:17:10;;;;;;;5.72;3.42;;;22.60;95.40;;;;;;5016615;28;20073;-74
2022/06/16 10:19:39;;;;;;;5.45;2.60;;;22.80;91.90;;;;;;5000960;28;20464;-75
2022/06/16 10:22:06;;;;;;;;;;;22.70;91.10;;;;;;5020865;28;20117;-75
2022/06/16 10:25:07;;;;;;;4.57;2.92;;;22.80;91.30;;;;;;5026726;28;20015;-74
2022/06/16 10:27:43;;;;;;;5.22;3.25;;;22.80;90.40;;;;;;4983931;28;20348;-75
2022/06/16 10:30:19;;;;;;;6.13;3.00;;;22.70;81.10;;;;;;5000209;28;20050;-75
2022/06/16 10:32:56;;;;;;;6.82;2.60;;;22.60;86.00;;;;;;4993644;28;20105;-74
2022/06/16 10:35:26;;;;;;;;;;;22.50;90.20;;;;;;5003578;28;20061;-75
2022/06/16 10:37:53;;;;;;;5.43;2.75;;;22.40;83.70;;;;;;5027928;28;20064;-73
2022/06/16 10:40:36;;;;;;;5.38;3.08;;;22.40;84.20;;;;;;4981669;28;20192;-74
2022/06/16 10:43:10;;;;;;;5.50;2.90;;;22.50;80.90;;;;;;4993563;28;20046;-75
2022/06/16 10:45:37;;;;;;;5.65;3.00;;;22.50;86.30;;;;;;4991630;28;20050;-75
2022/06/16 10:48:18;;;;;;;5.72;3.05;;;22.50;84.40;;;;;;5009288;28;20183;-75
2022/06/16 10:50:50;;;;;;;5.10;2.47;;;22.40;80.40;;;;;;4996466;28;20057;-75
2022/06/16 10:53:27;;;;;;;4.75;2.80;;;22.40;79.80;;;;;;5015265;28;20042;-74
2022/06/16 10:56:02;;;;;;;3.90;2.70;;;22.50;79.60;;;;;;4996792;28;20553;-74
2022/06/16 10:58:41;;;;;;;6.55;3.22;;;22.70;75.50;;;;;;4986781;28;20038;-75
2022/06/16 11:01:19;;;;;;;5.20;2.80;;;22.70;68.70;;;;;;4998483;28;20111;-74
2022/06/16 11:03:52;;;;;;;4.10;2.50;;;22.60;70.50;;;;;;4997288;28;20069;-76
2022/06/16 11:06:21;;;;;;;5.25;2.63;;;22.70;73.80;;;;;;4995233;28;20484;-75
2022/06/16 11:08:51;;;;;;;4.75;2.47;;;22.70;69.50;;;;;;4992776;28;20113;-74
2022/06/16 11:11:18;;;;;;;;;;;22.80;72.80;;;;;;5019680;28;20034;-75
2022/06/16 11:13:54;;;;;;;5.43;3.03;;;22.90;72.40;;;;;;4996663;28;19929;-75
2022/06/16 11:16:31;;;;;;;6.25;2.35;;;23.00;72.00;;;;;;5001571;28;20037;-74
2022/06/16 11:19:00;;;;;;;5.25;2.90;;;23.20;77.40;;;;;;4993569;28;20056;-74
2022/06/16 11:21:29;;;;;;;5.30;3.13;;;23.30;69.00;;;;;;4984352;28;20769;-75
2022/06/16 11:23:59;;;;;;;6.10;3.03;;;23.30;70.30;;;;;;5023723;28;20537;-75
2022/06/16 11:26:35;;;;;;;;;;;23.50;71.10;;;;;;5000021;28;20512;-74
2022/06/16 11:29:11;;;;;;;6.97;2.70;;;23.60;71.30;;;;;;5017067;28;20392;-74
2022/06/16 11:31:50;;;;;;;4.63;2.80;;;23.40;69.80;;;;;;5037995;28;20057;-74
2022/06/16 11:34:27;;;;;;;4.63;2.50;;;23.30;69.20;;;;;;5019458;28;20034;-76
2022/06/16 11:37:08;;;;;;;5.03;3.08;;;23.30;72.20;;;;;;4998591;28;20049;-76
2022/06/16 11:40:02;;;;;;;3.42;2.28;;;23.40;68.20;;;;;;4997174;28;20060;-76
2022/06/16 11:42:40;;;;;;;4.35;3.20;;;23.50;72.60;;;;;;5030838;28;20406;-75
2022/06/16 11:45:44;;;;;;;6.18;2.90;;;23.70;69.90;;;;;;4987735;28;20045;-76
2022/06/16 11:48:32;;;;;;;6.70;3.20;;;23.90;66.80;;;;;;4990747;28;20050;-76
2022/06/16 11:51:40;;;;;;;5.25;2.83;;;23.90;64.40;;;;;;5024269;28;20400;-77
2022/06/16 11:54:18;;;;;;;7.68;3.28;;;24.00;67.30;;;;;;4978626;28;20076;-76
2022/06/16 11:57:10;;;;;;;7.40;3.13;;;24.00;65.70;;;;;;5016116;28;20441;-76
2022/06/16 12:00:12;;;;;;;4.88;3.38;;;23.80;64.40;;;;;;5002678;28;20050;-76
2022/06/16 12:03:07;;;;;;;5.82;2.65;;;23.40;64.00;;;;;;5002900;28;20127;-75
2022/06/16 12:05:49;;;;;;;5.25;2.90;;;23.30;67.60;;;;;;4990236;28;20038;-76
2022/06/16 12:08:27;;;;;;;6.22;2.90;;;23.30;67.00;;;;;;4988245;28;20042;-76
2022/06/16 12:11:03;;;;;;;4.57;2.70;;;23.30;72.70;;;;;;5012913;28;20080;-76
2022/06/16 12:13:39;;;;;;;3.88;2.58;;;23.40;75.70;;;;;;4990022;28;20124;-77
2022/06/16 12:16:51;;;;;;;7.50;3.70;;;23.60;81.60;;;;;;4986831;28;20054;-76
2022/06/16 12:19:29;;;;;;;7.22;2.95;;;23.70;69.70;;;;;;4994481;28;20417;-75
2022/06/16 12:22:04;;;;;;;5.80;3.33;;;23.70;67.20;;;;;;5012849;28;20081;-76
2022/06/16 12:24:42;;;;;;;4.30;3.03;;;23.50;67.30;;;;;;4986972;28;20049;-75
2022/06/16 12:27:15;;;;;;;7.63;2.83;;;23.40;66.10;;;;;;4998961;28;20049;-76
2022/06/16 12:29:57;;;;;;;4.72;2.55;;;23.20;69.60;;;;;;5001222;28;20049;-75
2022/06/16 12:32:36;;;;;;;3.53;2.63;;;23.30;70.80;;;;;;4999753;28;20042;-76
2022/06/16 12:35:07;;;;;;;4.70;2.88;;;23.50;69.10;;;;;;4985708;28;20082;-76
2022/06/16 12:37:52;;;;;;;5.63;2.90;;;23.60;68.60;;;;;;5030366;28;20045;-76
2022/06/16 12:40:30;;;;;;;3.50;2.80;;;23.80;78.70;;;;;;4994110;28;20037;-76
2022/06/16 12:43:02;;;;;;;5.28;2.70;;;24.10;74.40;;;;;;5003757;28;20044;-76
2022/06/16 12:45:54;;;;;;;5.75;2.70;;;24.40;79.50;;;;;;5011897;28;20393;-76
2022/06/16 12:48:28;;;;;;;5.93;3.00;;;24.70;76.90;;;;;;5012045;28;20405;-76
2022/06/16 12:50:58;;;;;;;4.95;2.65;;;24.80;69.20;;;;;;4986614;28;20424;-75
2022/06/16 12:53:30;;;;;;;6.07;3.00;;;24.70;67.10;;;;;;5030973;28;20142;-75
2022/06/16 12:56:12;;;;;;;3.58;2.35;;;24.80;66.40;;;;;;4999110;28;20083;-76
2022/06/16 12:59:02;;;;;;;5.72;2.80;;;25.00;72.50;;;;;;5035190;28;20041;-76
2022/06/16 13:01:28;;;;;;;4.00;2.30;;;25.10;68.00;;;;;;4996819;28;20133;-76
2022/06/16 13:04:31;;;;;;;6.95;3.38;;;25.10;69.60;;;;;;5013424;28;20124;-76
2022/06/16 13:06:58;;;;;;;4.78;2.83;;;25.40;74.00;;;;;;5003670;28;20048;-76
2022/06/16 13:09:24;;;;;;;6.30;3.22;;;25.60;68.40;;;;;;4996259;28;20137;-75
2022/06/16 13:12:08;;;;;;;5.88;2.83;;;25.70;64.20;;;;;;4982644;28;20054;-75
2022/06/16 13:14:57;;;;;;;6.57;2.90;;;25.60;62.20;;;;;;4984088;28;20054;-76
2022/06/16 13:17:45;;;;;;;5.53;2.60;;;25.50;66.20;;;;;;4986600;28;20045;-73
2022/06/16 13:20:15;;;;;;;4.95;3.10;;;25.30;63.70;;;;;;5038260;28;20283;-73
2022/06/16 13:23:23;;;;;;;5.18;3.10;;;24.90;60.80;;;;;;4990656;28;20339;-73
2022/06/16 13:25:55;;;;;;;6.60;2.85;;;24.50;60.60;;;;;;5005807;28;20456;-73
2022/06/16 13:28:23;;;;;;;5.78;3.00;;;24.20;63.70;;;;;;5018428;28;20054;-74
2022/06/16 13:31:37;;;;;;;7.88;3.00;;;24.10;63.40;;;;;;5004601;28;20094;-74
2022/06/16 13:34:03;;;;;;;5.22;2.90;;;24.00;68.40;;;;;;4982570;28;20410;-74
2022/06/16 13:36:32;;;;;;;5.10;2.70;;;24.20;64.30;;;;;;5002058;28;20029;-75
2022/06/16 13:38:59;;;;;;;6.25;2.78;;;24.40;66.60;;;;;;4986191;28;20408;-75